• Join FlightAware (Why Join?)
  • Login
  • US Flag 
04:33PM EDT


 

Airport Tracker/Info


-or-


 

Live Flight TrackerFlight Track Log ✈ N92PK ✈ 28-Apr-2013 ✈ KSUA - KABY

Flight Track Log - Related Links

Times and Time Zones

All times are in EDT time to prevent confusion due to time zone crossing. See the N92PK flight status page for this flight to view local times or setup timezone preferences in your user account.

Time Position Orientation Groundspeed Altitude Reporting Facility
EDT Latitude Longitude Course Direction KTS MPH feet Rate Location/Type
10:01AM 27.1681 -80.1931 281° West 113 130 800  Level Miami Center
10:02AM 27.1564 -80.1575 110° East 118 136 1,700 900 Climbing Miami Center
10:03AM 27.1403 -80.1292 123° Southeast 125 144 2,600 960 Climbing Miami Center
10:04AM 27.1106 -80.1539 217° Southwest 142 163 3,700 1,020 Climbing Miami Center
10:05AM 27.0867 -80.1883 232° Southwest 153 176 4,700 600 Climbing Miami Center
10:06AM 27.2572 -80.4601 281° West  Level FlightAware Approximate
10:06AM 27.0919 -80.2350 277° West 162 186 5,000  Level Miami Center
10:07AM 27.1117 -80.2822 295° West 176 203 5,000 240 Level Miami Center
10:12AM 27.2380 -80.5440 295° West 167 192 6,900 360 Climbing FlightAware
10:12AM 27.2440 -80.5550 302° West 169 194 7,100 600 Climbing FlightAware
10:13AM 27.2520 -80.5710 299° West 172 198 7,300 720 Climbing FlightAware
10:13AM 27.2650 -80.5950 301° West 171 197 7,800 540 Climbing FlightAware
10:14AM 27.2770 -80.6170 302° West 173 199 7,800  Level FlightAware
10:14AM 27.2830 -80.6290 299° West 182 209 7,800  Level FlightAware
10:14AM 27.2940 -80.6530 297° West 182 209 7,800 60 Level FlightAware
10:16AM 27.3261 -80.7211 297° West 183 211 8,000 60 Climbing Miami Center
10:17AM 27.3519 -80.7664 303° West 183 211 8,000  Level Miami Center
10:18AM 27.3778 -80.8211 298° West 183 211 8,000  Level Miami Center
10:19AM 27.4033 -80.8711 300° West 188 216 8,000  Level Miami Center
10:20AM 27.4314 -80.9211 302° West 188 216 8,000 -60 Level Miami Center
10:25AM 27.5700 -81.1920 302° West 182 209 7,800 -60 Descending FlightAware
10:26AM 27.5920 -81.2350 300° West 183 211 7,800  Level FlightAware
10:26AM 27.6020 -81.2540 301° West 182 209 7,800  Level FlightAware
10:27AM 27.6120 -81.2760 297° West 182 209 7,800  Level FlightAware
10:27AM 27.6270 -81.3030 302° West 180 207 7,800  Level FlightAware
10:28AM 27.6390 -81.3270 299° West 180 207 7,800  Level FlightAware
10:28AM 27.6510 -81.3500 301° West 181 208 7,800  Level FlightAware
10:29AM 27.6650 -81.3780 299° West 180 207 7,800  Level FlightAware
10:29AM 27.6760 -81.3990 301° West 181 208 7,800  Level FlightAware
10:29AM 27.6870 -81.4210 299° West 182 209 7,800  Level FlightAware
10:30AM 27.7000 -81.4460 300° West 182 209 7,800  Level FlightAware
10:30AM 27.7050 -81.4580 295° West 182 209 7,800  Level FlightAware
10:31AM 27.7190 -81.4840 301° West 181 208 7,800  Level FlightAware
10:31AM 27.7240 -81.4950 297° West 181 208 7,800  Level FlightAware
10:31AM 27.7380 -81.5220 300° West 182 209 7,800  Level FlightAware
10:32AM 27.7460 -81.5380 299° West 183 211 7,800  Level FlightAware
10:32AM 27.7540 -81.5530 301° West 184 212 7,800  Level FlightAware
10:32AM 27.7660 -81.5770 299° West 185 213 7,800  Level FlightAware
10:33AM 27.7700 -81.5850 299° West 185 213 7,800  Level FlightAware
10:33AM 27.7850 -81.6140 300° West 186 214 7,800  Level FlightAware
10:34AM 27.7960 -81.6370 298° West 187 215 7,800  Level FlightAware
10:34AM 27.8020 -81.6470 304° West 187 215 7,800  Level FlightAware
10:34AM 27.8140 -81.6720 298° West 187 215 7,800  Level FlightAware
10:36AM 27.8460 -81.7350 300° West 192 221 7,800  Level FlightAware
10:38AM 27.9080 -81.8590 300° West 193 222 7,800  Level FlightAware
10:39AM 27.9300 -81.9030 300° West 193 222 7,800  Level FlightAware
10:39AM 27.9390 -81.9200 301° West 193 222 7,800  Level FlightAware
10:40AM 27.9530 -81.9480 300° West 193 222 7,800  Level FlightAware
10:40AM 27.9630 -81.9680 300° West 193 222 7,800  Level FlightAware
10:40AM 27.9770 -81.9970 299° West 193 222 7,800  Level FlightAware
10:41AM 27.9880 -82.0150 305° West 194 223 7,800  Level FlightAware
10:41AM 28.0010 -82.0230 331° Northwest 194 223 7,800  Level FlightAware
10:42AM 28.0250 -82.0380 331° Northwest 194 223 7,800  Level FlightAware
10:42AM 28.0330 -82.0430 331° Northwest 194 223 7,800  Level FlightAware
10:42AM 28.0560 -82.0580 330° Northwest 193 222 7,800  Level FlightAware
10:43AM 28.0660 -82.0660 325° Northwest 193 222 7,800  Level FlightAware
10:43AM 28.0720 -82.0740 310° West 192 221 7,800  Level FlightAware
10:43AM 28.0910 -82.0980 312° West 191 220 7,800  Level FlightAware
10:44AM 28.1090 -82.1200 313° West 192 221 7,800  Level FlightAware
10:44AM 28.1240 -82.1380 313° West 193 222 7,800  Level FlightAware
10:45AM 28.1420 -82.1600 313° West 193 222 7,800  Level FlightAware
10:45AM 28.1510 -82.1720 310° West 193 222 7,800  Level FlightAware
10:45AM 28.1580 -82.1790 319° Northwest 194 223 7,800  Level FlightAware
10:45AM 28.1710 -82.1830 345° North 194 223 7,800  Level FlightAware
10:46AM 28.1960 -82.1920 342° North 194 223 7,800  Level FlightAware
10:46AM 28.2220 -82.2010 343° North 193 222 7,800  Level FlightAware
10:47AM 28.2450 -82.2080 345° North 193 222 7,800  Level FlightAware
10:47AM 28.2700 -82.2170 342° North 191 220 7,800  Level FlightAware
10:47AM 28.2820 -82.2210 344° North 190 219 7,800  Level FlightAware
10:48AM 28.3040 -82.2290 342° North 191 220 7,800  Level FlightAware
10:48AM 28.3290 -82.2380 342° North 190 219 7,800  Level FlightAware
10:49AM 28.3380 -82.2410 344° North 190 219 7,800  Level FlightAware
10:49AM 28.3630 -82.2500 342° North 190 219 7,800  Level FlightAware
10:50AM 28.3860 -82.2640 332° Northwest 190 219 7,800  Level FlightAware
10:50AM 28.4040 -82.2760 330° Northwest 189 217 7,800  Level FlightAware
10:50AM 28.4280 -82.2910 331° Northwest 188 216 7,800  Level FlightAware
10:51AM 28.4470 -82.3030 331° Northwest 190 219 7,800  Level FlightAware
10:51AM 28.4700 -82.3180 330° Northwest 189 217 7,800  Level FlightAware
10:52AM 28.4930 -82.3330 330° Northwest 189 217 7,800  Level FlightAware
10:52AM 28.5010 -82.3380 331° Northwest 189 217 7,800  Level FlightAware
10:53AM 28.5230 -82.3520 331° Northwest 189 217 7,800  Level FlightAware
10:53AM 28.5450 -82.3660 331° Northwest 190 219 7,800  Level FlightAware
10:54AM 28.5770 -82.3870 330° Northwest 190 219 7,800  Level FlightAware
10:54AM 28.5960 -82.3980 333° Northwest 190 219 7,800  Level FlightAware
10:55AM 28.6190 -82.4130 330° Northwest 191 220 7,800  Level FlightAware
10:55AM 28.6400 -82.4270 330° Northwest 190 219 7,800  Level FlightAware
10:57AM 28.7250 -82.4810 331° Northwest 7,800  Level FlightAware
10:59AM 28.8160 -82.5400 330° Northwest 186 214 7,800  Level FlightAware
10:59AM 28.8350 -82.5520 331° Northwest 186 214 7,800  Level FlightAware
11:00AM 28.8580 -82.5670 330° Northwest 186 214 7,800  Level FlightAware
11:00AM 28.8800 -82.5810 331° Northwest 187 215 7,800  Level FlightAware
11:01AM 28.8980 -82.5940 328° Northwest 187 215 7,800  Level FlightAware
11:03AM 29.0100 -82.6650 331° Northwest 7,800  Level FlightAware
11:04AM 29.0340 -82.6810 330° Northwest 186 214 7,800  Level FlightAware
11:04AM 29.0510 -82.6910 333° Northwest 186 214 7,800  Level FlightAware
11:04AM 29.0650 -82.7010 328° Northwest 186 214 7,800  Level FlightAware
11:05AM 29.0840 -82.7130 331° Northwest 185 213 7,800  Level FlightAware
11:05AM 29.1090 -82.7300 329° Northwest 185 213 7,800 60 Level FlightAware
11:06AM 29.1664 -82.7667 329° Northwest 192 221 8,000 60 Climbing Jacksonville Center
11:07AM 29.2122 -82.7975 330° Northwest 192 221 8,000  Level Jacksonville Center
11:08AM 29.2581 -82.8283 330° Northwest 192 221 8,000  Level Jacksonville Center
11:09AM 29.3042 -82.8569 332° Northwest 187 215 8,000  Level Jacksonville Center
11:10AM 29.3500 -82.8878 330° Northwest 192 221 8,000  Level Jacksonville Center
11:11AM 29.3981 -82.9189 331° Northwest 192 221 8,000  Level Jacksonville Center
11:12AM 29.4439 -82.9475 331° Northwest 192 221 8,000  Level Jacksonville Center
11:13AM 29.4897 -82.9783 330° Northwest 192 221 8,000  Level Jacksonville Center
11:14AM 29.5378 -83.0094 331° Northwest 192 221 8,000  Level Jacksonville Center
11:15AM 29.5836 -83.0406 329° Northwest 192 221 8,000  Level Jacksonville Center
11:16AM 29.6317 -83.0694 332° Northwest 192 221 8,000  Level Jacksonville Center
11:17AM 29.6797 -83.0981 333° Northwest 192 221 8,000  Level Jacksonville Center
11:18AM 29.7297 -83.1294 331° Northwest 192 221 8,000  Level Jacksonville Center
11:19AM 29.7736 -83.1511 337° Northwest 192 221 8,000  Level Jacksonville Center
11:20AM 29.8214 -83.1775 334° Northwest 192 221 8,000  Level Jacksonville Center
11:21AM 29.8694 -83.2064 332° Northwest 192 221 8,000  Level Jacksonville Center
11:22AM 29.9194 -83.2353 333° Northwest 192 221 8,000  Level Jacksonville Center
11:23AM 29.9675 -83.2642 332° Northwest 197 227 8,000  Level Jacksonville Center
11:24AM 30.0153 -83.2931 332° Northwest 197 227 8,000  Level Jacksonville Center
11:25AM 30.0633 -83.3197 334° Northwest 197 227 8,000  Level Jacksonville Center
11:26AM 30.1133 -83.3489 333° Northwest 197 227 8,000  Level Jacksonville Center
11:27AM 30.1592 -83.3756 333° Northwest 197 227 8,000  Level Jacksonville Center
11:28AM 30.2092 -83.4044 333° Northwest 197 227 8,000  Level Jacksonville Center
11:29AM 30.2569 -83.4314 334° Northwest 197 227 8,000  Level Jacksonville Center
11:30AM 30.3028 -83.4603 331° Northwest 192 221 8,000  Level Jacksonville Center
11:31AM 30.3528 -83.4872 335° Northwest 192 221 8,000  Level Jacksonville Center
11:32AM 30.4006 -83.5189 330° Northwest 189 217 8,000  Level Jacksonville Center
11:33AM 30.4403 -83.5431 332° Northwest 188 216 8,000  Level Jacksonville Center
11:34AM 30.4881 -83.5725 332° Northwest 187 215 8,000  Level Jacksonville Center
11:35AM 30.5339 -83.5969 335° Northwest 184 212 8,000  Level Jacksonville Center
11:35AM 30.5339 -83.5969 335° Northwest 181 208 8,000  Level Jacksonville Center
11:36AM 30.5817 -83.6261 332° Northwest 186 214 8,000  Level Jacksonville Center
11:37AM 30.6256 -83.6531 332° Northwest 187 215 8,000  Level Jacksonville Center
11:38AM 30.6733 -83.6825 332° Northwest 187 215 8,000  Level Jacksonville Center
11:39AM 30.7211 -83.7094 334° Northwest 187 215 8,000  Level Jacksonville Center
11:40AM 30.7689 -83.7389 332° Northwest 188 216 8,000  Level Jacksonville Center
11:41AM 30.8169 -83.7658 334° Northwest 188 216 8,000  Level Jacksonville Center
11:42AM 30.8606 -83.7953 330° Northwest 187 215 8,000 -240 Level Jacksonville Center
11:43AM 30.9125 -83.8225 336° Northwest 190 219 7,600 -600 Descending Jacksonville Center
11:44AM 30.9581 -83.8519 331° Northwest 191 220 6,900 -660 Descending Jacksonville Center
11:46AM 31.0103 -83.8767 338° Northwest 195 224 6,200 -660 Descending Jacksonville Center
11:47AM 31.0558 -83.9064 331° Northwest 195 224 5,500 -720 Descending Jacksonville Center
11:48AM 31.0994 -83.9311 334° Northwest 184 212 4,800 -720 Descending Jacksonville Center
11:49AM 31.1453 -83.9606 331° Northwest 184 212 4,100 -720 Descending Jacksonville Center
11:50AM 31.1972 -83.9733 348° North 179 206 3,400 -720 Descending Jacksonville Center
11:51AM 31.2517 -83.9814 353° North 179 206 2,700 -480 Descending Jacksonville Center
11:52AM 31.3036 -83.9844 357° North 184 212 2,500 -120 Descending Jacksonville Center
11:53AM 31.3475 -83.9897 354° North 173 199 2,500  Level Jacksonville Center
11:54AM 31.3914 -83.9950 354° North 162 186 2,500 -120 Level Jacksonville Center
11:55AM 31.4372 -84.0006 354° North 162 186 2,300 -120 Descending Jacksonville Center
11:56AM 31.4789 -84.0033 357° North 162 186 2,300  Level Jacksonville Center
11:57AM 31.5164 -84.0089 353° North 156 180 2,300  Level Jacksonville Center
11:58AM 31.5583 -84.0117 357° North 151 174 2,300  Level Jacksonville Center
11:59AM 31.5958 -84.0047 North 140 161 2,300  Level Jacksonville Center
12:00PM 31.6314 -83.9881 22° Northeast 140 161 2,300 -60 Level Jacksonville Center
12:01PM 31.6692 -83.9814 North 140 161 2,200 -180 Descending Jacksonville Center
12:02PM 31.6875 -84.0206 299° West 110 127 2,000 -120 Descending Jacksonville Center
12:03PM 31.6686 -84.0519 235° Southwest 90 104 2,000  Level Jacksonville Center
12:04PM 31.6433 -84.0761 219° Southwest 90 104 2,000  Level Jacksonville Center
12:05PM 31.6200 -84.1028 224° Southwest 116 133 2,000 -240 Level Jacksonville Center
12:06PM 31.5967 -84.1292 224° Southwest 122 140 1,600 -480 Descending Jacksonville Center
12:07PM 31.5758 -84.1483 218° Southwest 116 133 1,100 -540 Descending Jacksonville Center
12:08PM 31.5547 -84.1725 224° Southwest 116 133 600 -540 Descending Jacksonville Center